sensor_id;sensor_type;location;lat;lon;timestamp;temperature;humidity
36444;DHT22;24692;45.642;13.806;2023-02-08T00:01:20;1.50;99.80
36444;DHT22;24692;45.642;13.806;2023-02-08T00:03:45;1.50;99.90
36444;DHT22;24692;45.642;13.806;2023-02-08T00:06:12;1.50;99.90
36444;DHT22;24692;45.642;13.806;2023-02-08T00:08:38;1.50;99.90
36444;DHT22;24692;45.642;13.806;2023-02-08T00:11:04;1.60;99.90
36444;DHT22;24692;45.642;13.806;2023-02-08T00:13:31;1.60;99.90
36444;DHT22;24692;45.642;13.806;2023-02-08T00:15:57;1.50;99.90
36444;DHT22;24692;45.642;13.806;2023-02-08T00:18:23;1.50;99.90
36444;DHT22;24692;45.642;13.806;2023-02-08T00:20:48;1.30;99.90
36444;DHT22;24692;45.642;13.806;2023-02-08T00:23:15;1.30;99.90
36444;DHT22;24692;45.642;13.806;2023-02-08T00:25:41;1.30;99.90
36444;DHT22;24692;45.642;13.806;2023-02-08T00:28:11;1.30;99.90
36444;DHT22;24692;45.642;13.806;2023-02-08T00:30:36;1.40;99.90
36444;DHT22;24692;45.642;13.806;2023-02-08T00:33:02;1.40;99.90
36444;DHT22;24692;45.642;13.806;2023-02-08T00:35:28;1.30;99.90
36444;DHT22;24692;45.642;13.806;2023-02-08T00:37:54;1.30;99.90
36444;DHT22;24692;45.642;13.806;2023-02-08T00:40:20;1.40;99.90
36444;DHT22;24692;45.642;13.806;2023-02-08T00:42:45;1.40;99.90
36444;DHT22;24692;45.642;13.806;2023-02-08T00:45:11;1.20;99.90
36444;DHT22;24692;45.642;13.806;2023-02-08T00:47:37;1.20;99.90
36444;DHT22;24692;45.642;13.806;2023-02-08T00:50:03;1.20;99.90
36444;DHT22;24692;45.642;13.806;2023-02-08T00:52:29;1.30;99.90
36444;DHT22;24692;45.642;13.806;2023-02-08T00:54:55;1.40;99.90
36444;DHT22;24692;45.642;13.806;2023-02-08T00:57:21;1.40;99.90
36444;DHT22;24692;45.642;13.806;2023-02-08T00:59:46;1.40;99.90
36444;DHT22;24692;45.642;13.806;2023-02-08T01:02:12;1.40;99.90
36444;DHT22;24692;45.642;13.806;2023-02-08T01:04:38;1.30;99.90
36444;DHT22;24692;45.642;13.806;2023-02-08T01:07:04;1.30;99.90
36444;DHT22;24692;45.642;13.806;2023-02-08T01:09:30;1.20;99.90
36444;DHT22;24692;45.642;13.806;2023-02-08T01:11:56;1.20;99.90
36444;DHT22;24692;45.642;13.806;2023-02-08T01:14:21;1.20;99.90
36444;DHT22;24692;45.642;13.806;2023-02-08T01:16:47;1.30;99.90
36444;DHT22;24692;45.642;13.806;2023-02-08T01:19:13;1.30;99.90
36444;DHT22;24692;45.642;13.806;2023-02-08T01:21:40;1.20;99.90
36444;DHT22;24692;45.642;13.806;2023-02-08T01:24:07;1.20;99.90
36444;DHT22;24692;45.642;13.806;2023-02-08T01:26:32;1.30;99.90
36444;DHT22;24692;45.642;13.806;2023-02-08T01:28:59;1.30;99.90
36444;DHT22;24692;45.642;13.806;2023-02-08T01:31:27;1.30;99.90
36444;DHT22;24692;45.642;13.806;2023-02-08T01:33:54;1.20;99.90
36444;DHT22;24692;45.642;13.806;2023-02-08T01:36:20;1.20;99.90
36444;DHT22;24692;45.642;13.806;2023-02-08T01:38:47;1.10;99.90
36444;DHT22;24692;45.642;13.806;2023-02-08T01:41:16;1.00;99.90
36444;DHT22;24692;45.642;13.806;2023-02-08T01:47:05;1.00;99.90
36444;DHT22;24692;45.642;13.806;2023-02-08T01:49:33;1.20;99.90
36444;DHT22;24692;45.642;13.806;2023-02-08T01:52:03;1.10;99.90
36444;DHT22;24692;45.642;13.806;2023-02-08T01:54:34;1.10;99.90
36444;DHT22;24692;45.642;13.806;2023-02-08T01:57:01;0.90;99.90
36444;DHT22;24692;45.642;13.806;2023-02-08T01:59:33;0.70;99.90
36444;DHT22;24692;45.642;13.806;2023-02-08T02:02:00;0.80;99.90
36444;DHT22;24692;45.642;13.806;2023-02-08T02:04:27;0.80;99.90
36444;DHT22;24692;45.642;13.806;2023-02-08T02:06:56;0.80;99.90
36444;DHT22;24692;45.642;13.806;2023-02-08T02:12:24;0.90;99.90
36444;DHT22;24692;45.642;13.806;2023-02-08T02:14:50;0.90;99.90
36444;DHT22;24692;45.642;13.806;2023-02-08T02:17:17;1.00;99.90
36444;DHT22;24692;45.642;13.806;2023-02-08T02:25:59;0.90;99.90
36444;DHT22;24692;45.642;13.806;2023-02-08T02:33:56;0.90;99.90
36444;DHT22;24692;45.642;13.806;2023-02-08T02:44:53;0.80;99.90
36444;DHT22;24692;45.642;13.806;2023-02-08T02:50:00;0.90;99.90
36444;DHT22;24692;45.642;13.806;2023-02-08T02:52:33;0.90;99.90
36444;DHT22;24692;45.642;13.806;2023-02-08T02:55:06;0.80;99.90
36444;DHT22;24692;45.642;13.806;2023-02-08T02:57:33;0.80;99.90
36444;DHT22;24692;45.642;13.806;2023-02-08T03:00:00;0.80;99.90
36444;DHT22;24692;45.642;13.806;2023-02-08T03:02:30;1.00;99.90
36444;DHT22;24692;45.642;13.806;2023-02-08T03:04:57;1.00;99.90
36444;DHT22;24692;45.642;13.806;2023-02-08T03:13:33;0.90;99.90
36444;DHT22;24692;45.642;13.806;2023-02-08T03:19:08;1.00;99.90
36444;DHT22;24692;45.642;13.806;2023-02-08T03:21:54;0.90;99.90
36444;DHT22;24692;45.642;13.806;2023-02-08T03:27:06;0.80;99.90
36444;DHT22;24692;45.642;13.806;2023-02-08T03:29:45;0.70;99.90
36444;DHT22;24692;45.642;13.806;2023-02-08T03:32:25;0.80;99.90
36444;DHT22;24692;45.642;13.806;2023-02-08T03:38:08;0.80;99.90
36444;DHT22;24692;45.642;13.806;2023-02-08T03:40:43;0.70;99.90
36444;DHT22;24692;45.642;13.806;2023-02-08T03:43:47;0.80;99.90
36444;DHT22;24692;45.642;13.806;2023-02-08T03:46:23;0.60;99.90
36444;DHT22;24692;45.642;13.806;2023-02-08T03:49:03;0.80;99.90
36444;DHT22;24692;45.642;13.806;2023-02-08T03:51:33;0.80;99.90
36444;DHT22;24692;45.642;13.806;2023-02-08T03:54:02;0.80;99.90
36444;DHT22;24692;45.642;13.806;2023-02-08T03:56:39;0.70;99.90
36444;DHT22;24692;45.642;13.806;2023-02-08T03:59:11;0.80;99.90
36444;DHT22;24692;45.642;13.806;2023-02-08T04:01:47;0.80;99.90
36444;DHT22;24692;45.642;13.806;2023-02-08T04:04:14;0.80;99.90
36444;DHT22;24692;45.642;13.806;2023-02-08T04:06:41;0.90;99.90
36444;DHT22;24692;45.642;13.806;2023-02-08T04:09:06;0.90;99.90
36444;DHT22;24692;45.642;13.806;2023-02-08T04:11:32;1.00;99.90
36444;DHT22;24692;45.642;13.806;2023-02-08T04:13:58;0.90;99.90
36444;DHT22;24692;45.642;13.806;2023-02-08T04:16:23;0.80;99.90
36444;DHT22;24692;45.642;13.806;2023-02-08T04:18:49;0.80;99.90
36444;DHT22;24692;45.642;13.806;2023-02-08T04:21:15;0.90;99.90
36444;DHT22;24692;45.642;13.806;2023-02-08T04:23:41;1.00;99.90
36444;DHT22;24692;45.642;13.806;2023-02-08T04:26:06;1.00;99.90
36444;DHT22;24692;45.642;13.806;2023-02-08T04:28:33;0.80;99.90
36444;DHT22;24692;45.642;13.806;2023-02-08T04:30:59;0.80;99.90
36444;DHT22;24692;45.642;13.806;2023-02-08T04:33:25;0.80;99.90
36444;DHT22;24692;45.642;13.806;2023-02-08T04:35:51;0.80;99.90
36444;DHT22;24692;45.642;13.806;2023-02-08T04:38:17;0.80;99.90
36444;DHT22;24692;45.642;13.806;2023-02-08T04:40:43;0.80;99.90
36444;DHT22;24692;45.642;13.806;2023-02-08T04:43:08;0.70;99.90
36444;DHT22;24692;45.642;13.806;2023-02-08T04:45:34;0.80;99.90
36444;DHT22;24692;45.642;13.806;2023-02-08T04:48:00;0.80;99.90
36444;DHT22;24692;45.642;13.806;2023-02-08T04:50:26;0.80;99.90
36444;DHT22;24692;45.642;13.806;2023-02-08T04:52:52;0.70;99.90
36444;DHT22;24692;45.642;13.806;2023-02-08T04:55:18;0.70;99.90
36444;DHT22;24692;45.642;13.806;2023-02-08T04:57:43;0.70;99.90
36444;DHT22;24692;45.642;13.806;2023-02-08T05:00:10;0.80;99.90
36444;DHT22;24692;45.642;13.806;2023-02-08T05:02:36;0.80;99.90
36444;DHT22;24692;45.642;13.806;2023-02-08T05:05:01;0.80;99.90
36444;DHT22;24692;45.642;13.806;2023-02-08T05:07:27;0.90;99.90
36444;DHT22;24692;45.642;13.806;2023-02-08T05:09:53;0.90;99.90
36444;DHT22;24692;45.642;13.806;2023-02-08T05:12:18;0.90;99.90
36444;DHT22;24692;45.642;13.806;2023-02-08T05:14:44;0.90;99.90
36444;DHT22;24692;45.642;13.806;2023-02-08T05:17:09;0.80;99.90
36444;DHT22;24692;45.642;13.806;2023-02-08T05:19:35;0.80;99.90
36444;DHT22;24692;45.642;13.806;2023-02-08T05:22:01;0.80;99.90
36444;DHT22;24692;45.642;13.806;2023-02-08T05:24:26;0.80;99.90
36444;DHT22;24692;45.642;13.806;2023-02-08T05:26:52;0.90;99.90
36444;DHT22;24692;45.642;13.806;2023-02-08T05:29:18;0.90;99.90
36444;DHT22;24692;45.642;13.806;2023-02-08T05:31:43;0.90;99.90
36444;DHT22;24692;45.642;13.806;2023-02-08T05:34:09;0.80;99.90
36444;DHT22;24692;45.642;13.806;2023-02-08T05:36:35;0.80;99.90
36444;DHT22;24692;45.642;13.806;2023-02-08T05:39:00;0.80;99.90
36444;DHT22;24692;45.642;13.806;2023-02-08T05:41:26;0.80;99.90
36444;DHT22;24692;45.642;13.806;2023-02-08T05:43:52;0.70;99.90
36444;DHT22;24692;45.642;13.806;2023-02-08T05:46:17;0.90;99.90
36444;DHT22;24692;45.642;13.806;2023-02-08T05:48:43;0.90;99.90
36444;DHT22;24692;45.642;13.806;2023-02-08T05:51:09;1.10;99.90
36444;DHT22;24692;45.642;13.806;2023-02-08T05:53:34;1.20;99.90
36444;DHT22;24692;45.642;13.806;2023-02-08T05:56:01;1.30;99.90
36444;DHT22;24692;45.642;13.806;2023-02-08T05:58:26;1.40;99.90
36444;DHT22;24692;45.642;13.806;2023-02-08T06:00:52;1.50;99.90
36444;DHT22;24692;45.642;13.806;2023-02-08T06:03:18;1.50;99.90
36444;DHT22;24692;45.642;13.806;2023-02-08T06:05:44;1.40;99.90
36444;DHT22;24692;45.642;13.806;2023-02-08T06:08:10;1.40;99.90
36444;DHT22;24692;45.642;13.806;2023-02-08T06:10:36;1.50;99.90
36444;DHT22;24692;45.642;13.806;2023-02-08T06:13:02;1.40;99.90
36444;DHT22;24692;45.642;13.806;2023-02-08T06:15:28;1.20;99.90
36444;DHT22;24692;45.642;13.806;2023-02-08T06:17:54;1.40;99.90
36444;DHT22;24692;45.642;13.806;2023-02-08T06:20:20;1.20;99.90
36444;DHT22;24692;45.642;13.806;2023-02-08T06:22:45;1.20;99.90
36444;DHT22;24692;45.642;13.806;2023-02-08T06:25:11;1.20;99.90
36444;DHT22;24692;45.642;13.806;2023-02-08T06:27:37;1.30;99.90
36444;DHT22;24692;45.642;13.806;2023-02-08T06:30:03;1.30;99.90
36444;DHT22;24692;45.642;13.806;2023-02-08T06:32:29;1.50;99.90
36444;DHT22;24692;45.642;13.806;2023-02-08T06:34:54;1.40;99.90
36444;DHT22;24692;45.642;13.806;2023-02-08T06:37:20;1.40;99.90
36444;DHT22;24692;45.642;13.806;2023-02-08T06:39:46;1.50;99.90
36444;DHT22;24692;45.642;13.806;2023-02-08T06:42:11;1.40;99.90
36444;DHT22;24692;45.642;13.806;2023-02-08T06:44:37;1.50;99.90
36444;DHT22;24692;45.642;13.806;2023-02-08T06:47:03;1.50;99.90
36444;DHT22;24692;45.642;13.806;2023-02-08T06:49:29;1.30;99.90
36444;DHT22;24692;45.642;13.806;2023-02-08T06:51:54;1.20;99.90
36444;DHT22;24692;45.642;13.806;2023-02-08T06:54:20;1.50;99.90
36444;DHT22;24692;45.642;13.806;2023-02-08T06:56:46;1.40;99.90
36444;DHT22;24692;45.642;13.806;2023-02-08T06:59:11;1.70;99.90
36444;DHT22;24692;45.642;13.806;2023-02-08T07:01:37;1.60;99.90
36444;DHT22;24692;45.642;13.806;2023-02-08T07:04:03;1.80;99.90
36444;DHT22;24692;45.642;13.806;2023-02-08T07:06:29;2.40;99.90
36444;DHT22;24692;45.642;13.806;2023-02-08T07:08:55;3.60;99.90
36444;DHT22;24692;45.642;13.806;2023-02-08T07:11:21;4.60;99.90
36444;DHT22;24692;45.642;13.806;2023-02-08T07:13:48;4.70;99.90
36444;DHT22;24692;45.642;13.806;2023-02-08T07:16:14;4.30;99.90
36444;DHT22;24692;45.642;13.806;2023-02-08T07:18:40;4.00;99.90
36444;DHT22;24692;45.642;13.806;2023-02-08T07:21:06;4.50;99.90
36444;DHT22;24692;45.642;13.806;2023-02-08T07:23:32;5.20;99.90
36444;DHT22;24692;45.642;13.806;2023-02-08T07:26:03;5.10;99.90
36444;DHT22;24692;45.642;13.806;2023-02-08T07:28:30;6.10;99.90
36444;DHT22;24692;45.642;13.806;2023-02-08T07:30:56;6.30;99.90
36444;DHT22;24692;45.642;13.806;2023-02-08T07:33:22;6.40;99.90
36444;DHT22;24692;45.642;13.806;2023-02-08T07:35:48;6.20;99.90
36444;DHT22;24692;45.642;13.806;2023-02-08T07:38:14;6.40;99.90
36444;DHT22;24692;45.642;13.806;2023-02-08T07:40:40;6.90;99.90
36444;DHT22;24692;45.642;13.806;2023-02-08T07:43:05;5.30;99.90
36444;DHT22;24692;45.642;13.806;2023-02-08T07:45:31;6.20;99.90
36444;DHT22;24692;45.642;13.806;2023-02-08T07:47:57;7.00;99.90
36444;DHT22;24692;45.642;13.806;2023-02-08T07:50:23;6.20;99.90
36444;DHT22;24692;45.642;13.806;2023-02-08T07:52:49;7.00;99.90
36444;DHT22;24692;45.642;13.806;2023-02-08T07:55:14;8.00;99.90
36444;DHT22;24692;45.642;13.806;2023-02-08T07:57:45;8.30;98.50
36444;DHT22;24692;45.642;13.806;2023-02-08T08:00:13;8.10;98.20
36444;DHT22;24692;45.642;13.806;2023-02-08T08:02:39;7.40;98.10
36444;DHT22;24692;45.642;13.806;2023-02-08T08:05:05;6.50;99.50
36444;DHT22;24692;45.642;13.806;2023-02-08T08:07:31;7.00;98.80
36444;DHT22;24692;45.642;13.806;2023-02-08T08:09:56;7.80;98.60
36444;DHT22;24692;45.642;13.806;2023-02-08T08:12:22;8.20;97.40
36444;DHT22;24692;45.642;13.806;2023-02-08T08:14:49;8.50;98.00
36444;DHT22;24692;45.642;13.806;2023-02-08T08:17:16;8.00;98.00
36444;DHT22;24692;45.642;13.806;2023-02-08T08:19:41;8.60;97.50
36444;DHT22;24692;45.642;13.806;2023-02-08T08:22:07;9.00;96.50
36444;DHT22;24692;45.642;13.806;2023-02-08T08:24:33;8.60;96.90
36444;DHT22;24692;45.642;13.806;2023-02-08T08:27:03;8.40;97.10
36444;DHT22;24692;45.642;13.806;2023-02-08T08:29:31;9.30;96.40
36444;DHT22;24692;45.642;13.806;2023-02-08T08:31:57;9.30;95.10
36444;DHT22;24692;45.642;13.806;2023-02-08T08:34:22;9.00;95.40
36444;DHT22;24692;45.642;13.806;2023-02-08T08:36:55;9.20;95.50
36444;DHT22;24692;45.642;13.806;2023-02-08T08:39:20;9.40;95.00
36444;DHT22;24692;45.642;13.806;2023-02-08T08:41:46;9.30;95.00
36444;DHT22;24692;45.642;13.806;2023-02-08T08:44:12;8.50;94.60
36444;DHT22;24692;45.642;13.806;2023-02-08T08:46:37;8.00;95.60
36444;DHT22;24692;45.642;13.806;2023-02-08T08:49:03;8.50;96.00
36444;DHT22;24692;45.642;13.806;2023-02-08T08:51:28;8.10;95.10
36444;DHT22;24692;45.642;13.806;2023-02-08T08:54:01;8.70;94.30
36444;DHT22;24692;45.642;13.806;2023-02-08T08:56:40;7.80;95.10
36444;DHT22;24692;45.642;13.806;2023-02-08T08:59:06;8.30;95.60
36444;DHT22;24692;45.642;13.806;2023-02-08T09:01:32;8.60;94.80
36444;DHT22;24692;45.642;13.806;2023-02-08T09:03:57;9.30;94.10
36444;DHT22;24692;45.642;13.806;2023-02-08T09:06:23;10.10;94.20
36444;DHT22;24692;45.642;13.806;2023-02-08T09:08:49;11.20;93.10
36444;DHT22;24692;45.642;13.806;2023-02-08T09:11:15;10.10;91.90
36444;DHT22;24692;45.642;13.806;2023-02-08T09:13:41;9.10;94.30
36444;DHT22;24692;45.642;13.806;2023-02-08T09:16:15;10.50;93.50
36444;DHT22;24692;45.642;13.806;2023-02-08T09:18:42;11.40;92.30
36444;DHT22;24692;45.642;13.806;2023-02-08T09:21:19;10.60;92.00
36444;DHT22;24692;45.642;13.806;2023-02-08T09:23:46;10.30;91.70
36444;DHT22;24692;45.642;13.806;2023-02-08T09:26:14;10.80;92.20
36444;DHT22;24692;45.642;13.806;2023-02-08T09:28:40;10.60;91.10
36444;DHT22;24692;45.642;13.806;2023-02-08T09:31:10;9.90;91.30
36444;DHT22;24692;45.642;13.806;2023-02-08T09:33:36;11.10;91.20
36444;DHT22;24692;45.642;13.806;2023-02-08T09:36:01;10.30;90.10
36444;DHT22;24692;45.642;13.806;2023-02-08T09:38:27;10.80;90.60
36444;DHT22;24692;45.642;13.806;2023-02-08T09:41:07;11.10;90.30
36444;DHT22;24692;45.642;13.806;2023-02-08T09:46:21;12.30;87.50
36444;DHT22;24692;45.642;13.806;2023-02-08T09:48:50;12.60;86.10
36444;DHT22;24692;45.642;13.806;2023-02-08T09:53:47;11.70;87.70
36444;DHT22;24692;45.642;13.806;2023-02-08T09:56:21;11.40;86.90
36444;DHT22;24692;45.642;13.806;2023-02-08T09:58:51;11.80;87.30
36444;DHT22;24692;45.642;13.806;2023-02-08T10:01:26;12.00;84.50
36444;DHT22;24692;45.642;13.806;2023-02-08T10:03:58;10.10;87.70
36444;DHT22;24692;45.642;13.806;2023-02-08T10:06:25;10.00;88.70
36444;DHT22;24692;45.642;13.806;2023-02-08T10:08:52;11.20;89.50
36444;DHT22;24692;45.642;13.806;2023-02-08T10:19:38;10.80;86.30
36444;DHT22;24692;45.642;13.806;2023-02-08T10:22:28;10.80;86.70
36444;DHT22;24692;45.642;13.806;2023-02-08T10:33:00;10.40;85.40
36444;DHT22;24692;45.642;13.806;2023-02-08T10:35:32;9.50;87.70
36444;DHT22;24692;45.642;13.806;2023-02-08T10:40:43;11.10;87.00
36444;DHT22;24692;45.642;13.806;2023-02-08T10:43:34;11.80;82.80
36444;DHT22;24692;45.642;13.806;2023-02-08T10:47:06;10.50;85.00
36444;DHT22;24692;45.642;13.806;2023-02-08T10:49:19;9.90;88.30
36444;DHT22;24692;45.642;13.806;2023-02-08T10:51:47;11.70;87.70
36444;DHT22;24692;45.642;13.806;2023-02-08T10:54:14;11.50;86.10
36444;DHT22;24692;45.642;13.806;2023-02-08T10:59:16;11.20;89.50
36444;DHT22;24692;45.642;13.806;2023-02-08T11:01:44;11.60;88.40
36444;DHT22;24692;45.642;13.806;2023-02-08T11:04:11;11.80;87.50
36444;DHT22;24692;45.642;13.806;2023-02-08T11:06:39;12.50;85.90
36444;DHT22;24692;45.642;13.806;2023-02-08T11:09:05;11.80;86.00
36444;DHT22;24692;45.642;13.806;2023-02-08T11:11:39;12.00;87.10
36444;DHT22;24692;45.642;13.806;2023-02-08T11:14:12;12.70;91.30
36444;DHT22;24692;45.642;13.806;2023-02-08T11:16:39;12.40;87.40
36444;DHT22;24692;45.642;13.806;2023-02-08T11:19:18;11.40;88.10
36444;DHT22;24692;45.642;13.806;2023-02-08T11:21:49;13.30;91.30
36444;DHT22;24692;45.642;13.806;2023-02-08T11:24:22;13.00;86.80
36444;DHT22;24692;45.642;13.806;2023-02-08T11:26:51;13.40;85.90
36444;DHT22;24692;45.642;13.806;2023-02-08T11:29:26;11.80;83.50
36444;DHT22;24692;45.642;13.806;2023-02-08T11:34:34;11.10;85.30
36444;DHT22;24692;45.642;13.806;2023-02-08T11:37:02;11.80;89.60
36444;DHT22;24692;45.642;13.806;2023-02-08T11:39:49;12.20;92.90
36444;DHT22;24692;45.642;13.806;2023-02-08T11:42:21;12.00;87.50
36444;DHT22;24692;45.642;13.806;2023-02-08T11:44:48;12.10;94.30
36444;DHT22;24692;45.642;13.806;2023-02-08T11:47:17;12.40;90.30
36444;DHT22;24692;45.642;13.806;2023-02-08T11:49:56;12.60;90.00
36444;DHT22;24692;45.642;13.806;2023-02-08T11:52:41;14.10;90.90
36444;DHT22;24692;45.642;13.806;2023-02-08T11:55:28;15.70;87.30
36444;DHT22;24692;45.642;13.806;2023-02-08T11:58:24;13.90;81.30
36444;DHT22;24692;45.642;13.806;2023-02-08T12:01:02;13.20;94.20
36444;DHT22;24692;45.642;13.806;2023-02-08T12:03:34;13.90;93.30
36444;DHT22;24692;45.642;13.806;2023-02-08T12:09:47;13.70;84.80
36444;DHT22;24692;45.642;13.806;2023-02-08T12:22:31;13.80;86.80
36444;DHT22;24692;45.642;13.806;2023-02-08T12:25:28;13.90;84.30
36444;DHT22;24692;45.642;13.806;2023-02-08T12:42:33;11.30;84.80
36444;DHT22;24692;45.642;13.806;2023-02-08T12:47:55;10.40;84.70
36444;DHT22;24692;45.642;13.806;2023-02-08T12:53:02;10.00;86.10
36444;DHT22;24692;45.642;13.806;2023-02-08T12:55:34;10.50;85.60
36444;DHT22;24692;45.642;13.806;2023-02-08T12:58:29;10.20;85.70
36444;DHT22;24692;45.642;13.806;2023-02-08T13:01:07;10.70;88.20
36444;DHT22;24692;45.642;13.806;2023-02-08T13:03:43;11.80;84.60
36444;DHT22;24692;45.642;13.806;2023-02-08T13:06:31;12.40;82.80
36444;DHT22;24692;45.642;13.806;2023-02-08T13:09:02;11.40;83.00
36444;DHT22;24692;45.642;13.806;2023-02-08T13:11:54;11.20;82.60
36444;DHT22;24692;45.642;13.806;2023-02-08T13:14:41;10.70;85.50
36444;DHT22;24692;45.642;13.806;2023-02-08T13:20:13;11.00;84.20
36444;DHT22;24692;45.642;13.806;2023-02-08T13:22:41;11.70;83.40
36444;DHT22;24692;45.642;13.806;2023-02-08T13:25:20;10.90;83.00
36444;DHT22;24692;45.642;13.806;2023-02-08T13:27:48;10.70;83.40
36444;DHT22;24692;45.642;13.806;2023-02-08T13:30:18;11.30;84.60
36444;DHT22;24692;45.642;13.806;2023-02-08T13:32:45;11.50;82.70
36444;DHT22;24692;45.642;13.806;2023-02-08T13:35:13;11.60;83.10
36444;DHT22;24692;45.642;13.806;2023-02-08T13:37:42;11.20;82.60
36444;DHT22;24692;45.642;13.806;2023-02-08T13:40:25;12.10;82.80
36444;DHT22;24692;45.642;13.806;2023-02-08T13:45:50;11.30;89.40
36444;DHT22;24692;45.642;13.806;2023-02-08T13:48:17;11.90;88.30
36444;DHT22;24692;45.642;13.806;2023-02-08T13:51:01;12.80;86.00
36444;DHT22;24692;45.642;13.806;2023-02-08T13:56:09;11.70;84.60
36444;DHT22;24692;45.642;13.806;2023-02-08T14:01:18;9.20;87.40
36444;DHT22;24692;45.642;13.806;2023-02-08T14:06:36;10.90;85.50
36444;DHT22;24692;45.642;13.806;2023-02-08T14:11:48;11.40;85.60
36444;DHT22;24692;45.642;13.806;2023-02-08T14:14:27;11.10;85.30
36444;DHT22;24692;45.642;13.806;2023-02-08T14:20:16;10.50;84.50
36444;DHT22;24692;45.642;13.806;2023-02-08T14:22:49;10.40;86.10
36444;DHT22;24692;45.642;13.806;2023-02-08T14:25:21;10.40;86.60
36444;DHT22;24692;45.642;13.806;2023-02-08T14:27:59;9.50;86.00
36444;DHT22;24692;45.642;13.806;2023-02-08T14:30:34;9.10;88.20
36444;DHT22;24692;45.642;13.806;2023-02-08T14:35:32;8.60;89.50
36444;DHT22;24692;45.642;13.806;2023-02-08T14:40:57;9.40;89.00
36444;DHT22;24692;45.642;13.806;2023-02-08T14:43:37;10.00;87.60
36444;DHT22;24692;45.642;13.806;2023-02-08T14:49:07;9.20;89.10
36444;DHT22;24692;45.642;13.806;2023-02-08T14:51:36;8.90;90.60
36444;DHT22;24692;45.642;13.806;2023-02-08T14:54:16;9.30;91.10
36444;DHT22;24692;45.642;13.806;2023-02-08T14:57:05;9.60;89.60
36444;DHT22;24692;45.642;13.806;2023-02-08T14:59:33;9.40;90.70
36444;DHT22;24692;45.642;13.806;2023-02-08T15:02:02;9.30;90.80
36444;DHT22;24692;45.642;13.806;2023-02-08T15:04:29;9.40;91.70
36444;DHT22;24692;45.642;13.806;2023-02-08T15:07:16;9.60;91.80
36444;DHT22;24692;45.642;13.806;2023-02-08T15:09:46;9.60;90.80
36444;DHT22;24692;45.642;13.806;2023-02-08T15:14:43;8.50;91.80
36444;DHT22;24692;45.642;13.806;2023-02-08T15:20:07;8.20;92.90
36444;DHT22;24692;45.642;13.806;2023-02-08T15:22:38;8.50;92.70
36444;DHT22;24692;45.642;13.806;2023-02-08T15:25:20;8.60;92.70
36444;DHT22;24692;45.642;13.806;2023-02-08T15:27:49;8.00;93.10
36444;DHT22;24692;45.642;13.806;2023-02-08T15:32:48;7.80;93.20
36444;DHT22;24692;45.642;13.806;2023-02-08T15:35:17;7.70;93.40
36444;DHT22;24692;45.642;13.806;2023-02-08T15:37:44;8.00;93.40
36444;DHT22;24692;45.642;13.806;2023-02-08T15:40:27;8.30;93.30
36444;DHT22;24692;45.642;13.806;2023-02-08T15:42:53;8.10;93.30
36444;DHT22;24692;45.642;13.806;2023-02-08T15:45:22;7.70;93.70
36444;DHT22;24692;45.642;13.806;2023-02-08T15:47:48;7.70;94.20
36444;DHT22;24692;45.642;13.806;2023-02-08T15:50:17;7.20;94.30
36444;DHT22;24692;45.642;13.806;2023-02-08T15:52:44;7.20;94.70
36444;DHT22;24692;45.642;13.806;2023-02-08T15:55:17;6.40;95.10
36444;DHT22;24692;45.642;13.806;2023-02-08T15:57:52;5.80;96.30
36444;DHT22;24692;45.642;13.806;2023-02-08T16:00:22;5.70;96.50
36444;DHT22;24692;45.642;13.806;2023-02-08T16:02:55;5.60;96.40
36444;DHT22;24692;45.642;13.806;2023-02-08T16:05:27;5.30;96.80
36444;DHT22;24692;45.642;13.806;2023-02-08T16:07:54;6.00;99.90
36444;DHT22;24692;45.642;13.806;2023-02-08T16:10:39;5.40;98.40
36444;DHT22;24692;45.642;13.806;2023-02-08T16:13:23;4.40;99.20
36444;DHT22;24692;45.642;13.806;2023-02-08T16:15:56;4.10;99.90
36444;DHT22;24692;45.642;13.806;2023-02-08T16:21:21;3.90;99.90
36444;DHT22;24692;45.642;13.806;2023-02-08T16:26:26;3.50;99.90
36444;DHT22;24692;45.642;13.806;2023-02-08T16:29:04;3.80;99.90
36444;DHT22;24692;45.642;13.806;2023-02-08T16:31:31;3.60;99.90
36444;DHT22;24692;45.642;13.806;2023-02-08T16:34:03;3.60;99.90
36444;DHT22;24692;45.642;13.806;2023-02-08T16:36:36;3.20;99.90
36444;DHT22;24692;45.642;13.806;2023-02-08T16:39:21;3.30;99.90
36444;DHT22;24692;45.642;13.806;2023-02-08T16:41:57;3.20;99.90
36444;DHT22;24692;45.642;13.806;2023-02-08T16:44:32;3.30;99.90
36444;DHT22;24692;45.642;13.806;2023-02-08T16:46:59;3.10;99.90
36444;DHT22;24692;45.642;13.806;2023-02-08T16:49:25;3.40;99.90
36444;DHT22;24692;45.642;13.806;2023-02-08T16:52:00;3.20;99.90
36444;DHT22;24692;45.642;13.806;2023-02-08T16:54:25;3.20;99.90
36444;DHT22;24692;45.642;13.806;2023-02-08T16:56:52;3.00;99.90
36444;DHT22;24692;45.642;13.806;2023-02-08T16:59:27;3.00;99.90
36444;DHT22;24692;45.642;13.806;2023-02-08T17:01:53;2.90;99.90
36444;DHT22;24692;45.642;13.806;2023-02-08T17:04:21;3.00;99.90
36444;DHT22;24692;45.642;13.806;2023-02-08T17:06:47;3.10;99.90
36444;DHT22;24692;45.642;13.806;2023-02-08T17:09:13;3.00;99.90
36444;DHT22;24692;45.642;13.806;2023-02-08T17:11:39;3.00;99.90
36444;DHT22;24692;45.642;13.806;2023-02-08T17:14:05;3.00;99.90
36444;DHT22;24692;45.642;13.806;2023-02-08T17:16:33;2.90;99.90
36444;DHT22;24692;45.642;13.806;2023-02-08T17:19:00;2.70;99.90
36444;DHT22;24692;45.642;13.806;2023-02-08T17:21:26;2.60;99.90
36444;DHT22;24692;45.642;13.806;2023-02-08T17:23:54;2.50;99.90
36444;DHT22;24692;45.642;13.806;2023-02-08T17:26:25;2.30;99.90
36444;DHT22;24692;45.642;13.806;2023-02-08T17:28:56;2.50;99.90
36444;DHT22;24692;45.642;13.806;2023-02-08T17:31:24;2.40;99.90
36444;DHT22;24692;45.642;13.806;2023-02-08T17:33:50;2.30;99.90
36444;DHT22;24692;45.642;13.806;2023-02-08T17:36:17;2.40;99.90
36444;DHT22;24692;45.642;13.806;2023-02-08T17:38:44;2.60;99.90
36444;DHT22;24692;45.642;13.806;2023-02-08T17:41:15;2.50;99.90
36444;DHT22;24692;45.642;13.806;2023-02-08T17:43:41;2.30;99.90
36444;DHT22;24692;45.642;13.806;2023-02-08T17:46:13;2.20;99.90
36444;DHT22;24692;45.642;13.806;2023-02-08T17:48:39;2.30;99.90
36444;DHT22;24692;45.642;13.806;2023-02-08T17:51:22;2.40;99.90
36444;DHT22;24692;45.642;13.806;2023-02-08T17:53:48;2.40;99.90
36444;DHT22;24692;45.642;13.806;2023-02-08T17:56:20;2.30;99.90
36444;DHT22;24692;45.642;13.806;2023-02-08T17:58:47;2.40;99.90
36444;DHT22;24692;45.642;13.806;2023-02-08T18:01:16;2.20;99.90
36444;DHT22;24692;45.642;13.806;2023-02-08T18:03:43;2.30;99.90
36444;DHT22;24692;45.642;13.806;2023-02-08T18:06:09;2.30;99.90
36444;DHT22;24692;45.642;13.806;2023-02-08T18:08:36;2.30;99.90
36444;DHT22;24692;45.642;13.806;2023-02-08T18:11:08;2.30;99.90